createdAt,value
2023-05-22T00:01:56.872Z,2.60
2023-05-22T00:05:00.913Z,2.83
2023-05-22T00:08:06.001Z,2.90
2023-05-22T00:11:09.337Z,2.63
2023-05-22T00:14:13.808Z,2.63
2023-05-22T00:17:17.220Z,2.72
2023-05-22T00:20:20.573Z,2.83
2023-05-22T00:23:24.708Z,2.33
2023-05-22T00:26:27.970Z,2.60
2023-05-22T00:29:31.339Z,2.95
2023-05-22T00:32:34.728Z,2.90
2023-05-22T00:35:38.140Z,3.00
2023-05-22T00:38:41.459Z,2.83
2023-05-22T00:41:44.796Z,2.50
2023-05-22T00:44:48.788Z,2.63
2023-05-22T00:47:52.392Z,2.67
2023-05-22T00:50:59.416Z,2.70
2023-05-22T00:54:02.936Z,2.90
2023-05-22T00:57:06.643Z,3.17
2023-05-22T01:00:15.310Z,2.80
2023-05-22T01:03:26.119Z,2.97
2023-05-22T01:06:32.308Z,2.58
2023-05-22T01:09:35.692Z,2.97
2023-05-22T01:13:05.261Z,2.93
2023-05-22T01:16:20.025Z,2.80
2023-05-22T01:19:48.008Z,2.90
2023-05-22T01:23:26.632Z,2.88
2023-05-22T01:26:55.744Z,2.70
2023-05-22T01:30:33.651Z,3.10
2023-05-22T01:33:47.248Z,2.80
2023-05-22T01:36:53.395Z,3.10
2023-05-22T01:39:57.986Z,3.13
2023-05-22T01:43:02.082Z,2.90
2023-05-22T01:46:06.671Z,2.70
2023-05-22T01:49:10.006Z,3.03
2023-05-22T01:52:23.773Z,3.17
2023-05-22T01:55:46.291Z,2.80
2023-05-22T01:59:15.806Z,3.20
2023-05-22T02:02:21.311Z,2.87
2023-05-22T02:05:27.749Z,2.83
2023-05-22T02:08:32.230Z,2.85
2023-05-22T02:11:37.720Z,3.50
2023-05-22T02:14:42.936Z,2.93
2023-05-22T02:17:48.106Z,3.10
2023-05-22T02:20:51.401Z,2.90
2023-05-22T02:23:54.762Z,2.90
2023-05-22T02:26:58.316Z,3.00
2023-05-22T02:30:01.824Z,3.67
2023-05-22T02:33:09.386Z,3.27
2023-05-22T02:36:15.115Z,3.35
2023-05-22T02:39:19.505Z,3.08
2023-05-22T02:42:23.054Z,3.20
2023-05-22T02:45:27.131Z,3.00
2023-05-22T02:48:30.625Z,3.30
2023-05-22T02:51:33.923Z,3.40
2023-05-22T02:54:37.202Z,3.28
2023-05-22T02:57:40.633Z,3.17
2023-05-22T03:00:43.913Z,3.00
2023-05-22T03:03:48.577Z,2.83
2023-05-22T03:06:52.191Z,3.10
2023-05-22T03:09:55.661Z,2.92
2023-05-22T03:12:58.941Z,3.30
2023-05-22T03:16:02.682Z,3.23
2023-05-22T03:19:10.510Z,2.97
2023-05-22T03:22:14.016Z,3.10
2023-05-22T03:25:17.920Z,3.10
2023-05-22T03:28:21.385Z,3.10
2023-05-22T03:31:31.521Z,2.97
2023-05-22T03:34:47.135Z,3.00
2023-05-22T03:37:50.619Z,2.90
2023-05-22T03:40:54.862Z,3.28
2023-05-22T03:43:59.192Z,2.80
2023-05-22T03:47:02.679Z,3.20
2023-05-22T03:50:08.048Z,3.30
2023-05-22T03:53:11.436Z,3.08
2023-05-22T03:56:14.763Z,3.10
2023-05-22T03:59:18.091Z,3.38
2023-05-22T04:02:22.052Z,3.00
2023-05-22T04:05:25.546Z,3.23
2023-05-22T04:08:29.039Z,3.10
2023-05-22T04:11:32.322Z,3.10
2023-05-22T04:14:36.201Z,3.17
2023-05-22T04:17:41.640Z,3.23
2023-05-22T04:20:45.082Z,2.80
2023-05-22T04:23:49.598Z,3.30
2023-05-22T04:26:52.939Z,3.25
2023-05-22T04:29:56.260Z,3.00
2023-05-22T04:33:01.886Z,2.90
2023-05-22T04:36:12.327Z,2.70
2023-05-22T04:39:15.885Z,3.47
2023-05-22T04:42:19.506Z,3.38
2023-05-22T04:45:25.442Z,3.10
2023-05-22T04:48:28.840Z,3.20
2023-05-22T04:51:33.299Z,2.90
2023-05-22T04:54:36.645Z,3.50
2023-05-22T04:57:40.703Z,3.38
2023-05-22T05:00:44.661Z,3.40
2023-05-22T05:03:48.384Z,3.10
2023-05-22T05:06:53.658Z,3.60
2023-05-22T05:09:57.307Z,3.17
2023-05-22T05:13:00.847Z,3.17
2023-05-22T05:16:04.890Z,3.67
2023-05-22T05:19:08.496Z,3.47
2023-05-22T05:22:11.846Z,2.97
2023-05-22T05:25:15.644Z,3.08
2023-05-22T05:28:20.083Z,3.40
2023-05-22T05:31:24.295Z,3.03
2023-05-22T05:34:43.233Z,3.70
2023-05-22T05:37:58.338Z,3.03
2023-05-22T05:41:03.160Z,3.10
2023-05-22T05:44:07.780Z,2.90
2023-05-22T05:47:11.389Z,2.92
2023-05-22T05:50:15.742Z,3.33
2023-05-22T05:53:19.615Z,2.70
2023-05-22T05:56:31.720Z,2.95
2023-05-22T05:59:36.448Z,3.30
2023-05-22T06:03:00.218Z,2.85
2023-05-22T06:06:29.910Z,3.08
2023-05-22T06:09:51.703Z,3.30
2023-05-22T06:13:13.573Z,3.03
2023-05-22T06:16:18.045Z,3.63
2023-05-22T06:19:21.925Z,3.20
2023-05-22T06:22:27.560Z,3.42
2023-05-22T06:25:31.052Z,3.30
2023-05-22T06:28:35.294Z,3.40
2023-05-22T06:31:39.805Z,3.70
2023-05-22T06:34:49.841Z,3.85
2023-05-22T06:37:56.666Z,4.20
2023-05-22T06:41:02.615Z,4.37
2023-05-22T06:44:06.652Z,3.60
2023-05-22T06:47:14.975Z,3.63
2023-05-22T06:50:18.436Z,3.47
2023-05-22T06:53:24.044Z,3.60
2023-05-22T06:56:27.582Z,3.20
2023-05-22T06:59:38.031Z,3.70
2023-05-22T07:02:42.111Z,3.25
2023-05-22T07:06:01.015Z,3.58
2023-05-22T07:09:06.682Z,3.63
2023-05-22T07:12:11.792Z,3.47
2023-05-22T07:15:19.181Z,3.30
2023-05-22T07:18:46.466Z,3.42
2023-05-22T07:22:10.303Z,3.05
2023-05-22T07:25:16.027Z,3.35
2023-05-22T07:28:20.168Z,3.43
2023-05-22T07:31:42.632Z,3.25
2023-05-22T07:34:47.275Z,3.55
2023-05-22T07:37:50.852Z,3.53
2023-05-22T07:40:54.328Z,3.63
2023-05-22T07:43:58.414Z,3.10
2023-05-22T07:47:07.997Z,3.40
2023-05-22T07:50:11.918Z,3.45
2023-05-22T07:53:21.867Z,3.58
2023-05-22T07:56:27.668Z,3.60
2023-05-22T07:59:33.819Z,3.60
2023-05-22T08:02:37.507Z,3.92
2023-05-22T08:05:41.110Z,3.47
2023-05-22T08:08:44.860Z,3.83
2023-05-22T08:11:48.407Z,3.55
2023-05-22T08:14:51.740Z,4.03
2023-05-22T08:17:55.094Z,3.67
2023-05-22T08:21:00.309Z,3.60
2023-05-22T08:24:04.009Z,3.45
2023-05-22T08:27:07.834Z,3.70
2023-05-22T08:30:11.740Z,3.80
2023-05-22T08:33:15.185Z,3.50
2023-05-22T08:36:18.689Z,3.33
2023-05-22T08:39:22.077Z,3.50
2023-05-22T08:42:25.711Z,3.42
2023-05-22T08:45:30.113Z,3.47
2023-05-22T08:48:34.429Z,3.28
2023-05-22T08:51:44.961Z,3.20
2023-05-22T08:54:55.553Z,3.45
2023-05-22T08:57:59.673Z,3.10
2023-05-22T09:01:05.508Z,3.23
2023-05-22T09:04:10.092Z,3.20
2023-05-22T09:07:14.610Z,3.10
2023-05-22T09:10:17.958Z,3.10
2023-05-22T09:13:27.397Z,2.80
2023-05-22T09:16:30.917Z,2.93
2023-05-22T09:19:34.503Z,3.25
2023-05-22T09:22:38.588Z,3.53
2023-05-22T09:25:43.291Z,2.80
2023-05-22T09:28:48.284Z,3.00
2023-05-22T09:31:51.776Z,2.90
2023-05-22T09:35:01.889Z,2.78
2023-05-22T09:38:06.570Z,2.90
2023-05-22T09:41:10.639Z,3.13
2023-05-22T09:44:15.761Z,3.10
2023-05-22T09:47:19.210Z,3.10
2023-05-22T09:50:22.864Z,2.50
2023-05-22T09:53:29.075Z,3.10
2023-05-22T09:56:39.976Z,2.80
2023-05-22T09:59:50.677Z,2.70
2023-05-22T10:03:09.235Z,2.93
2023-05-22T10:06:14.106Z,2.70
2023-05-22T10:09:21.584Z,2.90
2023-05-22T10:12:26.424Z,3.00
2023-05-22T10:15:30.591Z,2.50
2023-05-22T10:18:34.332Z,2.83
2023-05-22T10:21:39.155Z,2.60
2023-05-22T10:24:42.786Z,2.90
2023-05-22T10:27:46.539Z,2.80
2023-05-22T10:31:17.975Z,3.03
2023-05-22T10:35:02.069Z,2.67
2023-05-22T10:38:23.075Z,2.75
2023-05-22T10:41:28.665Z,3.28
2023-05-22T10:44:34.425Z,2.72
2023-05-22T10:47:38.251Z,3.10
2023-05-22T10:50:53.056Z,3.03
2023-05-22T10:54:02.406Z,3.03
2023-05-22T10:57:16.464Z,3.17
2023-05-22T11:00:21.321Z,3.20
2023-05-22T11:03:28.261Z,2.70
2023-05-22T11:06:42.222Z,2.77
2023-05-22T11:09:48.743Z,2.88
2023-05-22T11:13:11.648Z,2.38
2023-05-22T11:16:17.006Z,3.22
2023-05-22T11:19:24.001Z,3.30
2023-05-22T11:22:32.675Z,3.07
2023-05-22T11:25:37.699Z,2.80
2023-05-22T11:28:41.331Z,3.15
2023-05-22T11:31:46.401Z,3.08
2023-05-22T11:34:53.043Z,3.15
2023-05-22T11:37:57.135Z,3.23
2023-05-22T11:41:00.725Z,3.08
2023-05-22T11:44:07.906Z,3.40
2023-05-22T11:47:11.310Z,3.03
2023-05-22T11:50:22.785Z,2.67
2023-05-22T11:53:34.454Z,3.10
2023-05-22T11:56:37.755Z,3.10
2023-05-22T11:59:44.928Z,3.30
2023-05-22T12:02:48.372Z,2.92
2023-05-22T12:05:51.928Z,2.95
2023-05-22T12:08:57.085Z,2.50
2023-05-22T12:12:00.763Z,2.70
2023-05-22T12:15:07.489Z,2.95
2023-05-22T12:18:19.822Z,2.70
2023-05-22T12:21:28.911Z,2.60
2023-05-22T12:24:46.463Z,3.10
2023-05-22T12:27:51.254Z,2.90
2023-05-22T12:30:56.008Z,2.92
2023-05-22T12:33:59.374Z,2.92
2023-05-22T12:37:02.940Z,2.95
2023-05-22T12:40:07.373Z,2.80
2023-05-22T12:43:12.146Z,2.90
2023-05-22T12:46:16.304Z,3.20
2023-05-22T12:49:19.683Z,2.95
2023-05-22T12:52:23.091Z,2.97
2023-05-22T12:55:26.497Z,2.80
2023-05-22T12:58:29.743Z,2.72
2023-05-22T13:01:33.377Z,3.20
2023-05-22T13:04:36.959Z,3.00
2023-05-22T13:07:40.322Z,2.92
2023-05-22T13:10:43.748Z,3.20
2023-05-22T13:13:47.346Z,3.03
2023-05-22T13:16:50.852Z,3.00
2023-05-22T13:19:58.510Z,3.40
2023-05-22T13:23:02.024Z,2.80
2023-05-22T13:26:05.378Z,3.20
2023-05-22T13:29:08.677Z,2.80
2023-05-22T13:32:13.755Z,3.20
2023-05-22T13:35:17.554Z,2.40
2023-05-22T13:38:20.933Z,3.00
2023-05-22T13:41:24.217Z,3.70
2023-05-22T13:44:28.844Z,2.65
2023-05-22T13:47:32.325Z,3.15
2023-05-22T13:50:35.622Z,2.80
2023-05-22T13:53:39.162Z,2.72
2023-05-22T13:56:42.448Z,3.60
2023-05-22T13:59:45.810Z,2.70
2023-05-22T14:02:49.239Z,2.80
2023-05-22T14:05:52.686Z,3.00
2023-05-22T14:08:56.119Z,3.00
2023-05-22T14:11:59.535Z,2.80
2023-05-22T14:15:02.899Z,2.70
2023-05-22T14:18:06.296Z,2.60
2023-05-22T14:21:09.588Z,2.88
2023-05-22T14:24:12.890Z,3.30
2023-05-22T14:27:16.313Z,2.70
2023-05-22T14:30:19.816Z,2.72
2023-05-22T14:33:23.117Z,2.80
2023-05-22T14:36:26.472Z,3.00
2023-05-22T14:39:29.817Z,3.30
2023-05-22T14:42:33.079Z,3.20
2023-05-22T14:45:36.449Z,2.90
2023-05-22T14:48:39.756Z,3.17
2023-05-22T14:51:47.723Z,2.92
2023-05-22T14:54:53.067Z,2.90
2023-05-22T14:57:56.764Z,3.07
2023-05-22T15:01:00.153Z,2.50
2023-05-22T15:04:03.463Z,2.90
2023-05-22T15:07:06.744Z,3.13
2023-05-22T15:10:10.443Z,3.05
2023-05-22T15:13:14.592Z,3.20
2023-05-22T15:16:17.887Z,2.88
2023-05-22T15:19:21.224Z,2.70
2023-05-22T15:22:24.550Z,2.80
2023-05-22T15:25:27.924Z,3.30
2023-05-22T15:28:31.347Z,3.00
2023-05-22T15:31:34.804Z,3.05
2023-05-22T15:34:38.198Z,3.20
2023-05-22T15:37:41.569Z,2.80
2023-05-22T15:40:45.623Z,3.10
2023-05-22T15:43:50.897Z,3.10
2023-05-22T15:46:54.230Z,3.00
2023-05-22T15:49:57.536Z,3.10
2023-05-22T15:53:01.612Z,2.78
2023-05-22T15:56:06.114Z,3.43
2023-05-22T15:59:09.447Z,2.80
2023-05-22T16:02:13.089Z,2.70
2023-05-22T16:05:16.844Z,3.05
2023-05-22T16:08:20.165Z,2.95
2023-05-22T16:11:23.707Z,2.80
2023-05-22T16:14:27.109Z,3.10
2023-05-22T16:17:30.485Z,3.00
2023-05-22T16:20:35.542Z,3.20
2023-05-22T16:23:38.843Z,2.88
2023-05-22T16:26:42.214Z,3.00
2023-05-22T16:29:45.634Z,2.60
2023-05-22T16:32:49.618Z,3.05
2023-05-22T16:35:52.979Z,3.00
2023-05-22T16:38:56.340Z,2.60
2023-05-22T16:42:00.517Z,2.57
2023-05-22T16:45:04.759Z,2.77
2023-05-22T16:48:08.589Z,2.63
2023-05-22T16:51:12.031Z,3.30
2023-05-22T16:54:15.345Z,2.85
2023-05-22T16:57:19.264Z,2.90
2023-05-22T17:00:22.933Z,2.80
2023-05-22T17:03:26.739Z,3.10
2023-05-22T17:06:30.227Z,2.85
2023-05-22T17:09:33.579Z,2.83
2023-05-22T17:12:36.907Z,3.17
2023-05-22T17:15:40.335Z,2.97
2023-05-22T17:18:43.787Z,3.63
2023-05-22T17:21:47.300Z,5.30
2023-05-22T17:24:50.774Z,15.23
2023-05-22T17:27:54.068Z,8.63
2023-05-22T17:30:57.620Z,20.40
2023-05-22T17:34:01.078Z,20.83
2023-05-22T17:37:04.524Z,7.25
2023-05-22T17:40:08.471Z,7.00
2023-05-22T17:43:11.822Z,4.13
2023-05-22T17:46:15.166Z,3.10
2023-05-22T17:49:18.575Z,4.60
2023-05-22T17:52:21.979Z,3.13
2023-05-22T17:55:25.280Z,3.10
2023-05-22T17:58:28.663Z,3.30
2023-05-22T18:01:32.147Z,3.20
2023-05-22T18:04:36.356Z,3.30
2023-05-22T18:07:39.645Z,3.30
2023-05-22T18:10:43.265Z,3.13
2023-05-22T18:13:46.712Z,3.23
2023-05-22T18:16:49.973Z,3.20
2023-05-22T18:19:53.272Z,3.40
2023-05-22T18:22:56.659Z,3.42
2023-05-22T18:25:59.954Z,3.72
2023-05-22T18:29:03.278Z,3.90
2023-05-22T18:32:09.459Z,4.70
2023-05-22T18:35:12.757Z,4.47
2023-05-22T18:38:16.450Z,4.18
2023-05-22T18:41:19.789Z,4.07
2023-05-22T18:44:23.537Z,3.87
2023-05-22T18:47:26.991Z,4.33
2023-05-22T18:50:30.367Z,4.70
2023-05-22T18:53:33.733Z,4.40
2023-05-22T18:56:37.218Z,4.28
2023-05-22T18:59:41.393Z,4.43
2023-05-22T19:02:45.293Z,6.73
2023-05-22T19:05:48.728Z,6.00
2023-05-22T19:08:52.399Z,5.45
2023-05-22T19:11:55.817Z,6.43
2023-05-22T19:15:00.950Z,5.73
2023-05-22T19:18:04.360Z,5.33
2023-05-22T19:21:07.859Z,5.03
2023-05-22T19:24:11.178Z,4.78
2023-05-22T19:27:14.542Z,5.45
2023-05-22T19:30:18.999Z,4.40
2023-05-22T19:33:25.500Z,5.37
2023-05-22T19:36:28.976Z,5.25
2023-05-22T19:39:32.281Z,5.50
2023-05-22T19:42:37.306Z,5.38
2023-05-22T19:45:40.656Z,5.63
2023-05-22T19:48:44.051Z,5.40
2023-05-22T19:51:47.616Z,5.30
2023-05-22T19:54:50.941Z,5.07
2023-05-22T19:57:54.473Z,4.88
2023-05-22T20:00:57.823Z,4.50
2023-05-22T20:04:01.350Z,4.40
2023-05-22T20:07:05.756Z,3.97
2023-05-22T20:10:10.562Z,4.47
2023-05-22T20:13:13.903Z,4.22
2023-05-22T20:16:17.793Z,4.60
2023-05-22T20:19:21.710Z,4.33
2023-05-22T20:22:25.855Z,4.72
2023-05-22T20:25:29.186Z,4.60
2023-05-22T20:28:32.623Z,4.03
2023-05-22T20:31:36.473Z,4.70
2023-05-22T20:34:40.168Z,4.90
2023-05-22T20:37:43.493Z,5.05
2023-05-22T20:40:47.699Z,4.70
2023-05-22T20:43:54.482Z,4.70
2023-05-22T20:46:57.858Z,4.90
2023-05-22T20:50:01.258Z,4.83
2023-05-22T20:53:06.529Z,4.97
2023-05-22T20:56:09.971Z,5.18
2023-05-22T20:59:13.364Z,4.93
2023-05-22T21:02:17.662Z,5.77
2023-05-22T21:05:21.094Z,6.40
2023-05-22T21:08:24.375Z,6.68
2023-05-22T21:11:28.175Z,5.75
2023-05-22T21:14:31.488Z,6.13
2023-05-22T21:17:34.872Z,7.00
2023-05-22T21:20:38.460Z,5.13
2023-05-22T21:23:41.976Z,6.15
2023-05-22T21:26:45.370Z,6.00
2023-05-22T21:29:48.677Z,5.57
2023-05-22T21:32:52.011Z,6.00
2023-05-22T21:35:55.807Z,5.40
2023-05-22T21:39:00.469Z,5.72
2023-05-22T21:42:04.000Z,5.53
2023-05-22T21:45:08.276Z,5.88
2023-05-22T21:48:11.653Z,6.07
2023-05-22T21:51:15.186Z,5.67
2023-05-22T21:54:18.549Z,6.25
2023-05-22T21:57:23.027Z,7.00
2023-05-22T22:00:28.624Z,6.75
2023-05-22T22:03:32.109Z,6.53
2023-05-22T22:06:36.753Z,5.47
2023-05-22T22:09:40.025Z,5.13
2023-05-22T22:12:43.324Z,5.75
2023-05-22T22:15:46.767Z,5.90
2023-05-22T22:18:50.438Z,5.77
2023-05-22T22:21:53.820Z,5.83
2023-05-22T22:24:57.203Z,6.22
2023-05-22T22:28:00.524Z,5.90
2023-05-22T22:31:03.844Z,6.35
2023-05-22T22:34:07.229Z,5.27
2023-05-22T22:37:11.247Z,6.67
2023-05-22T22:40:14.599Z,6.68
2023-05-22T22:43:17.906Z,7.68
2023-05-22T22:46:22.182Z,7.97
2023-05-22T22:49:25.517Z,7.20
2023-05-22T22:52:28.747Z,6.57
2023-05-22T22:55:32.152Z,6.03
2023-05-22T22:58:36.615Z,6.45
2023-05-22T23:01:39.966Z,9.25
2023-05-22T23:04:43.324Z,6.60
2023-05-22T23:07:49.821Z,6.03
2023-05-22T23:10:53.131Z,7.20
2023-05-22T23:13:56.656Z,7.28
2023-05-22T23:16:59.976Z,7.35
2023-05-22T23:20:03.507Z,7.07
2023-05-22T23:23:06.916Z,6.30
2023-05-22T23:26:10.202Z,6.35
2023-05-22T23:29:13.563Z,6.53
2023-05-22T23:32:16.842Z,7.78
2023-05-22T23:35:20.547Z,6.97
2023-05-22T23:38:23.876Z,7.70
2023-05-22T23:41:27.627Z,8.45
2023-05-22T23:44:31.739Z,8.60
2023-05-22T23:47:35.171Z,8.35
2023-05-22T23:50:38.564Z,10.20
2023-05-22T23:53:42.483Z,11.13
2023-05-22T23:56:46.245Z,9.00
2023-05-22T23:59:49.578Z,7.43
